sensor_id;sensor_type;location;lat;lon;timestamp;pressure;altitude;pressure_sealevel;temperature;humidity
55801;BME280;41730;51.960;20.158;2023-02-18T00:02:00;99307.73;;;8.44;65.55
55801;BME280;41730;51.960;20.158;2023-02-18T00:04:35;99305.86;;;8.39;65.33
55801;BME280;41730;51.960;20.158;2023-02-18T00:07:19;99297.95;;;8.36;65.49
55801;BME280;41730;51.960;20.158;2023-02-18T00:09:51;99302.39;;;8.25;65.40
55801;BME280;41730;51.960;20.158;2023-02-18T00:12:31;99306.21;;;8.15;65.64
55801;BME280;41730;51.960;20.158;2023-02-18T00:15:04;99302.18;;;8.03;66.15
55801;BME280;41730;51.960;20.158;2023-02-18T00:17:46;99314.84;;;8.12;65.76
55801;BME280;41730;51.960;20.158;2023-02-18T00:20:24;99319.31;;;8.23;65.50
55801;BME280;41730;51.960;20.158;2023-02-18T00:23:03;99313.67;;;8.34;64.97
55801;BME280;41730;51.960;20.158;2023-02-18T00:25:40;99316.08;;;8.38;64.56
55801;BME280;41730;51.960;20.158;2023-02-18T00:28:12;99318.75;;;8.29;64.96
55801;BME280;41730;51.960;20.158;2023-02-18T00:30:44;99318.83;;;8.28;65.31
55801;BME280;41730;51.960;20.158;2023-02-18T00:33:21;99316.98;;;8.36;65.30
55801;BME280;41730;51.960;20.158;2023-02-18T00:35:59;99317.02;;;8.44;64.98
55801;BME280;41730;51.960;20.158;2023-02-18T00:38:36;99319.71;;;8.39;64.97
55801;BME280;41730;51.960;20.158;2023-02-18T00:41:54;99311.56;;;8.42;64.83
55801;BME280;41730;51.960;20.158;2023-02-18T00:44:34;99313.36;;;8.47;64.45
55801;BME280;41730;51.960;20.158;2023-02-18T00:47:07;99313.77;;;8.55;64.41
55801;BME280;41730;51.960;20.158;2023-02-18T00:49:38;99313.64;;;8.52;64.44
55801;BME280;41730;51.960;20.158;2023-02-18T00:52:10;99322.77;;;8.40;64.83
55801;BME280;41730;51.960;20.158;2023-02-18T00:54:42;99324.80;;;8.41;64.54
55801;BME280;41730;51.960;20.158;2023-02-18T00:57:16;99322.60;;;8.33;64.84
55801;BME280;41730;51.960;20.158;2023-02-18T00:59:49;99323.98;;;8.23;64.62
55801;BME280;41730;51.960;20.158;2023-02-18T01:02:21;99322.38;;;8.28;64.82
55801;BME280;41730;51.960;20.158;2023-02-18T01:04:53;99308.50;;;8.32;64.27
55801;BME280;41730;51.960;20.158;2023-02-18T01:07:26;99314.34;;;8.32;63.72
55801;BME280;41730;51.960;20.158;2023-02-18T01:09:58;99311.79;;;8.35;63.18
55801;BME280;41730;51.960;20.158;2023-02-18T01:12:29;99323.72;;;8.32;63.02
55801;BME280;41730;51.960;20.158;2023-02-18T01:15:02;99309.61;;;8.28;63.15
55801;BME280;41730;51.960;20.158;2023-02-18T01:17:35;99313.89;;;8.19;63.33
55801;BME280;41730;51.960;20.158;2023-02-18T01:20:09;99308.91;;;8.14;63.13
55801;BME280;41730;51.960;20.158;2023-02-18T01:22:42;99313.73;;;8.11;62.93
55801;BME280;41730;51.960;20.158;2023-02-18T01:25:15;99305.98;;;8.10;62.93
55801;BME280;41730;51.960;20.158;2023-02-18T01:27:47;99319.73;;;8.20;62.46
55801;BME280;41730;51.960;20.158;2023-02-18T01:30:22;99317.95;;;8.26;62.23
55801;BME280;41730;51.960;20.158;2023-02-18T01:32:56;99316.14;;;8.33;62.15
55801;BME280;41730;51.960;20.158;2023-02-18T01:35:29;99314.34;;;8.30;62.23
55801;BME280;41730;51.960;20.158;2023-02-18T01:38:01;99310.63;;;8.22;62.36
55801;BME280;41730;51.960;20.158;2023-02-18T01:40:34;99310.45;;;8.14;62.52
55801;BME280;41730;51.960;20.158;2023-02-18T01:43:08;99306.98;;;8.12;62.94
55801;BME280;41730;51.960;20.158;2023-02-18T01:45:56;99308.85;;;8.11;62.16
55801;BME280;41730;51.960;20.158;2023-02-18T01:48:33;99312.23;;;8.08;62.06
55801;BME280;41730;51.960;20.158;2023-02-18T01:51:11;99313.52;;;8.11;62.03
55801;BME280;41730;51.960;20.158;2023-02-18T01:53:51;99314.02;;;8.00;62.28
55801;BME280;41730;51.960;20.158;2023-02-18T01:56:27;99317.52;;;7.95;62.52
55801;BME280;41730;51.960;20.158;2023-02-18T01:59:02;99316.58;;;7.92;62.38
55801;BME280;41730;51.960;20.158;2023-02-18T02:01:36;99320.50;;;7.91;61.97
55801;BME280;41730;51.960;20.158;2023-02-18T02:04:09;99335.32;;;7.73;62.61
55801;BME280;41730;51.960;20.158;2023-02-18T02:06:41;99326.09;;;7.71;62.88
55801;BME280;41730;51.960;20.158;2023-02-18T02:09:15;99322.96;;;7.64;62.82
55801;BME280;41730;51.960;20.158;2023-02-18T02:12:13;99319.98;;;7.64;62.62
55801;BME280;41730;51.960;20.158;2023-02-18T02:15:08;99309.59;;;7.59;62.58
55801;BME280;41730;51.960;20.158;2023-02-18T02:17:53;99313.11;;;7.71;62.02
55801;BME280;41730;51.960;20.158;2023-02-18T02:27:07;99303.48;;;7.57;61.80
55801;BME280;41730;51.960;20.158;2023-02-18T02:30:09;99288.11;;;7.51;62.15
55801;BME280;41730;51.960;20.158;2023-02-18T02:33:09;99296.52;;;7.44;61.77
55801;BME280;41730;51.960;20.158;2023-02-18T02:35:49;99291.83;;;7.42;62.02
55801;BME280;41730;51.960;20.158;2023-02-18T02:38:30;99296.75;;;7.46;61.69
55801;BME280;41730;51.960;20.158;2023-02-18T02:41:12;99289.80;;;7.37;62.26
55801;BME280;41730;51.960;20.158;2023-02-18T02:43:52;99294.37;;;7.33;62.26
55801;BME280;41730;51.960;20.158;2023-02-18T02:46:30;99304.86;;;7.20;62.45
55801;BME280;41730;51.960;20.158;2023-02-18T02:49:15;99303.58;;;7.19;62.55
55801;BME280;41730;51.960;20.158;2023-02-18T02:51:55;99303.23;;;7.19;62.50
55801;BME280;41730;51.960;20.158;2023-02-18T02:54:31;99301.83;;;7.25;62.28
55801;BME280;41730;51.960;20.158;2023-02-18T02:59:59;99310.15;;;7.17;62.13
55801;BME280;41730;51.960;20.158;2023-02-18T03:02:39;99315.48;;;7.20;62.15
55801;BME280;41730;51.960;20.158;2023-02-18T03:05:27;99312.99;;;7.22;61.76
55801;BME280;41730;51.960;20.158;2023-02-18T03:08:25;99312.85;;;7.14;62.20
55801;BME280;41730;51.960;20.158;2023-02-18T03:11:05;99329.07;;;7.18;61.72
55801;BME280;41730;51.960;20.158;2023-02-18T03:13:48;99329.66;;;7.13;61.88
55801;BME280;41730;51.960;20.158;2023-02-18T03:16:28;99331.14;;;7.08;62.00
55801;BME280;41730;51.960;20.158;2023-02-18T03:19:09;99335.33;;;7.03;61.88
55801;BME280;41730;51.960;20.158;2023-02-18T03:21:47;99333.14;;;7.07;61.84
55801;BME280;41730;51.960;20.158;2023-02-18T03:24:25;99346.60;;;7.04;61.81
55801;BME280;41730;51.960;20.158;2023-02-18T03:27:07;99339.84;;;6.91;62.01
55801;BME280;41730;51.960;20.158;2023-02-18T03:29:41;99356.20;;;6.91;62.17
55801;BME280;41730;51.960;20.158;2023-02-18T03:32:18;99367.90;;;6.89;62.42
55801;BME280;41730;51.960;20.158;2023-02-18T03:34:57;99359.13;;;6.83;62.58
55801;BME280;41730;51.960;20.158;2023-02-18T03:37:32;99366.22;;;6.86;62.46
55801;BME280;41730;51.960;20.158;2023-02-18T03:40:11;99366.96;;;6.83;62.39
55801;BME280;41730;51.960;20.158;2023-02-18T03:42:43;99372.27;;;6.84;62.28
55801;BME280;41730;51.960;20.158;2023-02-18T03:45:17;99374.77;;;6.81;62.13
55801;BME280;41730;51.960;20.158;2023-02-18T03:47:53;99379.80;;;6.81;62.36
55801;BME280;41730;51.960;20.158;2023-02-18T03:50:28;99376.96;;;6.80;62.31
55801;BME280;41730;51.960;20.158;2023-02-18T03:53:00;99383.61;;;6.73;62.71
55801;BME280;41730;51.960;20.158;2023-02-18T03:55:32;99386.76;;;6.73;62.65
55801;BME280;41730;51.960;20.158;2023-02-18T03:58:04;99381.45;;;6.56;62.72
55801;BME280;41730;51.960;20.158;2023-02-18T04:00:36;99380.30;;;6.53;62.94
55801;BME280;41730;51.960;20.158;2023-02-18T04:03:08;99392.70;;;6.55;63.13
55801;BME280;41730;51.960;20.158;2023-02-18T04:05:39;99396.15;;;6.51;63.17
55801;BME280;41730;51.960;20.158;2023-02-18T04:08:11;99394.92;;;6.55;63.08
55801;BME280;41730;51.960;20.158;2023-02-18T04:10:43;99399.31;;;6.57;62.86
55801;BME280;41730;51.960;20.158;2023-02-18T04:13:15;99391.55;;;6.56;63.00
55801;BME280;41730;51.960;20.158;2023-02-18T04:15:49;99414.05;;;6.58;62.69
55801;BME280;41730;51.960;20.158;2023-02-18T04:18:24;99417.77;;;6.55;62.79
55801;BME280;41730;51.960;20.158;2023-02-18T04:20:56;99420.91;;;6.51;63.10
55801;BME280;41730;51.960;20.158;2023-02-18T04:23:29;99418.73;;;6.60;62.86
55801;BME280;41730;51.960;20.158;2023-02-18T04:26:00;99424.70;;;6.69;62.60
55801;BME280;41730;51.960;20.158;2023-02-18T04:28:35;99432.30;;;6.72;62.69
55801;BME280;41730;51.960;20.158;2023-02-18T04:31:14;99429.73;;;6.71;62.66
55801;BME280;41730;51.960;20.158;2023-02-18T04:33:49;99430.41;;;6.65;62.75
55801;BME280;41730;51.960;20.158;2023-02-18T04:36:20;99431.61;;;6.61;62.74
55801;BME280;41730;51.960;20.158;2023-02-18T04:38:52;99426.39;;;6.54;63.05
55801;BME280;41730;51.960;20.158;2023-02-18T04:41:23;99427.06;;;6.43;63.30
55801;BME280;41730;51.960;20.158;2023-02-18T04:43:55;99436.23;;;6.42;63.48
55801;BME280;41730;51.960;20.158;2023-02-18T04:46:28;99434.83;;;6.46;63.18
55801;BME280;41730;51.960;20.158;2023-02-18T04:48:59;99427.35;;;6.60;62.95
55801;BME280;41730;51.960;20.158;2023-02-18T04:51:31;99430.23;;;6.54;62.82
55801;BME280;41730;51.960;20.158;2023-02-18T04:54:02;99430.28;;;6.60;62.81
55801;BME280;41730;51.960;20.158;2023-02-18T04:56:34;99426.52;;;6.50;62.80
55801;BME280;41730;51.960;20.158;2023-02-18T04:59:05;99419.86;;;6.46;62.99
55801;BME280;41730;51.960;20.158;2023-02-18T05:01:37;99426.32;;;6.44;63.05
55801;BME280;41730;51.960;20.158;2023-02-18T05:04:09;99421.99;;;6.45;63.03
55801;BME280;41730;51.960;20.158;2023-02-18T05:06:41;99414.42;;;6.51;63.08
55801;BME280;41730;51.960;20.158;2023-02-18T05:09:13;99422.70;;;6.41;63.13
55801;BME280;41730;51.960;20.158;2023-02-18T05:11:45;99421.96;;;6.37;63.27
55801;BME280;41730;51.960;20.158;2023-02-18T05:14:17;99409.27;;;6.41;62.91
55801;BME280;41730;51.960;20.158;2023-02-18T05:16:49;99412.55;;;6.39;63.04
55801;BME280;41730;51.960;20.158;2023-02-18T05:19:21;99424.15;;;6.31;63.09
55801;BME280;41730;51.960;20.158;2023-02-18T05:21:52;99428.18;;;6.20;63.51
55801;BME280;41730;51.960;20.158;2023-02-18T05:24:24;99429.98;;;6.23;63.46
55801;BME280;41730;51.960;20.158;2023-02-18T05:26:55;99419.68;;;6.35;63.04
55801;BME280;41730;51.960;20.158;2023-02-18T05:29:27;99412.64;;;6.36;63.07
55801;BME280;41730;51.960;20.158;2023-02-18T05:31:59;99404.65;;;6.34;63.17
55801;BME280;41730;51.960;20.158;2023-02-18T05:34:31;99392.41;;;6.34;63.19
55801;BME280;41730;51.960;20.158;2023-02-18T05:37:02;99392.42;;;6.34;63.09
55801;BME280;41730;51.960;20.158;2023-02-18T05:39:34;99410.16;;;6.30;63.34
55801;BME280;41730;51.960;20.158;2023-02-18T05:42:06;99407.34;;;6.24;63.08
55801;BME280;41730;51.960;20.158;2023-02-18T05:44:37;99402.21;;;6.18;63.50
55801;BME280;41730;51.960;20.158;2023-02-18T05:47:11;99421.67;;;6.27;63.14
55801;BME280;41730;51.960;20.158;2023-02-18T05:49:43;99421.93;;;6.37;63.08
55801;BME280;41730;51.960;20.158;2023-02-18T05:52:16;99430.10;;;6.33;63.16
55801;BME280;41730;51.960;20.158;2023-02-18T05:54:47;99424.86;;;6.24;63.49
55801;BME280;41730;51.960;20.158;2023-02-18T05:57:19;99435.63;;;6.21;63.36
55801;BME280;41730;51.960;20.158;2023-02-18T05:59:51;99432.21;;;6.15;63.54
55801;BME280;41730;51.960;20.158;2023-02-18T06:02:22;99437.91;;;6.13;63.65
55801;BME280;41730;51.960;20.158;2023-02-18T06:04:54;99449.58;;;6.17;63.63
55801;BME280;41730;51.960;20.158;2023-02-18T06:07:26;99454.88;;;6.19;63.41
55801;BME280;41730;51.960;20.158;2023-02-18T06:09:57;99450.11;;;6.20;63.54
55801;BME280;41730;51.960;20.158;2023-02-18T06:12:29;99456.99;;;6.16;63.70
55801;BME280;41730;51.960;20.158;2023-02-18T06:15:01;99470.71;;;6.16;63.74
55801;BME280;41730;51.960;20.158;2023-02-18T06:17:32;99472.70;;;6.15;63.61
55801;BME280;41730;51.960;20.158;2023-02-18T06:20:05;99467.95;;;6.32;63.41
55801;BME280;41730;51.960;20.158;2023-02-18T06:22:37;99465.65;;;6.35;63.23
55801;BME280;41730;51.960;20.158;2023-02-18T06:25:09;99470.29;;;6.25;63.50
55801;BME280;41730;51.960;20.158;2023-02-18T06:27:40;99474.51;;;6.29;63.44
55801;BME280;41730;51.960;20.158;2023-02-18T06:30:13;99473.74;;;6.43;63.33
55801;BME280;41730;51.960;20.158;2023-02-18T06:32:45;99469.52;;;6.48;63.04
55801;BME280;41730;51.960;20.158;2023-02-18T06:35:17;99470.08;;;6.52;63.02
55801;BME280;41730;51.960;20.158;2023-02-18T06:37:49;99478.58;;;6.54;62.79
55801;BME280;41730;51.960;20.158;2023-02-18T06:40:21;99486.45;;;6.52;63.14
55801;BME280;41730;51.960;20.158;2023-02-18T06:42:53;99497.56;;;6.52;63.14
55801;BME280;41730;51.960;20.158;2023-02-18T06:45:25;99483.23;;;6.51;63.49
55801;BME280;41730;51.960;20.158;2023-02-18T06:47:56;99490.30;;;6.56;63.39
55801;BME280;41730;51.960;20.158;2023-02-18T06:50:30;99488.96;;;6.62;63.16
55801;BME280;41730;51.960;20.158;2023-02-18T06:53:02;99495.83;;;6.70;63.03
55801;BME280;41730;51.960;20.158;2023-02-18T06:55:33;99500.15;;;6.75;63.25
55801;BME280;41730;51.960;20.158;2023-02-18T06:58:05;99493.83;;;6.83;62.96
55801;BME280;41730;51.960;20.158;2023-02-18T07:00:37;99500.35;;;6.91;62.83
55801;BME280;41730;51.960;20.158;2023-02-18T07:03:09;99510.41;;;6.98;62.72
55801;BME280;41730;51.960;20.158;2023-02-18T07:05:41;99511.48;;;7.06;62.44
55801;BME280;41730;51.960;20.158;2023-02-18T07:08:13;99520.34;;;7.00;62.74
55801;BME280;41730;51.960;20.158;2023-02-18T07:10:45;99521.20;;;6.98;62.59
55801;BME280;41730;51.960;20.158;2023-02-18T07:13:17;99522.21;;;7.05;62.10
55801;BME280;41730;51.960;20.158;2023-02-18T07:15:49;99516.54;;;7.04;62.14
55801;BME280;41730;51.960;20.158;2023-02-18T07:18:20;99519.15;;;7.11;62.10
55801;BME280;41730;51.960;20.158;2023-02-18T07:20:52;99529.56;;;7.18;61.95
55801;BME280;41730;51.960;20.158;2023-02-18T07:23:23;99531.76;;;7.23;61.83
55801;BME280;41730;51.960;20.158;2023-02-18T07:26:04;99528.40;;;7.37;61.12
55801;BME280;41730;51.960;20.158;2023-02-18T07:28:36;99526.08;;;7.40;60.85
55801;BME280;41730;51.960;20.158;2023-02-18T07:31:08;99530.02;;;7.36;61.34
55801;BME280;41730;51.960;20.158;2023-02-18T07:33:40;99525.85;;;7.32;61.55
55801;BME280;41730;51.960;20.158;2023-02-18T07:36:12;99534.20;;;7.16;61.83
55801;BME280;41730;51.960;20.158;2023-02-18T07:38:44;99538.88;;;7.17;61.92
55801;BME280;41730;51.960;20.158;2023-02-18T07:41:19;99534.50;;;7.19;62.06
55801;BME280;41730;51.960;20.158;2023-02-18T07:43:51;99537.49;;;7.21;61.92
55801;BME280;41730;51.960;20.158;2023-02-18T07:46:23;99537.14;;;7.19;61.95
55801;BME280;41730;51.960;20.158;2023-02-18T07:48:55;99536.98;;;7.23;61.75
55801;BME280;41730;51.960;20.158;2023-02-18T07:51:27;99537.41;;;7.26;61.67
55801;BME280;41730;51.960;20.158;2023-02-18T07:53:59;99537.97;;;7.24;61.64
55801;BME280;41730;51.960;20.158;2023-02-18T07:56:33;99532.67;;;7.20;61.77
55801;BME280;41730;51.960;20.158;2023-02-18T07:59:05;99527.20;;;7.26;61.64
55801;BME280;41730;51.960;20.158;2023-02-18T08:01:37;99529.90;;;7.38;61.80
55801;BME280;41730;51.960;20.158;2023-02-18T08:04:09;99529.27;;;7.57;61.72
55801;BME280;41730;51.960;20.158;2023-02-18T08:06:43;99526.90;;;7.73;61.02
55801;BME280;41730;51.960;20.158;2023-02-18T08:09:16;99520.77;;;7.86;60.59
55801;BME280;41730;51.960;20.158;2023-02-18T08:11:48;99521.20;;;7.98;60.30
55801;BME280;41730;51.960;20.158;2023-02-18T08:14:21;99525.77;;;7.99;60.28
55801;BME280;41730;51.960;20.158;2023-02-18T08:16:53;99521.20;;;7.91;59.81
55801;BME280;41730;51.960;20.158;2023-02-18T08:19:24;99521.79;;;7.99;60.15
55801;BME280;41730;51.960;20.158;2023-02-18T08:21:56;99519.98;;;8.25;60.11
55801;BME280;41730;51.960;20.158;2023-02-18T08:24:31;99518.87;;;8.47;59.85
55801;BME280;41730;51.960;20.158;2023-02-18T08:27:03;99518.15;;;8.63;58.91
55801;BME280;41730;51.960;20.158;2023-02-18T08:29:34;99523.75;;;8.63;58.34
55801;BME280;41730;51.960;20.158;2023-02-18T08:32:07;99522.42;;;8.56;58.66
55801;BME280;41730;51.960;20.158;2023-02-18T08:34:38;99518.17;;;8.69;58.49
55801;BME280;41730;51.960;20.158;2023-02-18T08:37:10;99507.89;;;8.85;58.02
55801;BME280;41730;51.960;20.158;2023-02-18T08:39:41;99515.63;;;8.89;58.08
55801;BME280;41730;51.960;20.158;2023-02-18T08:42:13;99505.17;;;9.00;57.04
55801;BME280;41730;51.960;20.158;2023-02-18T08:44:45;99517.10;;;9.00;56.77
55801;BME280;41730;51.960;20.158;2023-02-18T08:47:17;99524.33;;;9.03;57.37
55801;BME280;41730;51.960;20.158;2023-02-18T08:50:11;99512.04;;;9.21;57.11
55801;BME280;41730;51.960;20.158;2023-02-18T08:52:42;99516.11;;;9.33;56.64
55801;BME280;41730;51.960;20.158;2023-02-18T08:55:15;99510.67;;;9.47;56.84
55801;BME280;41730;51.960;20.158;2023-02-18T08:57:50;99518.94;;;9.60;56.40
55801;BME280;41730;51.960;20.158;2023-02-18T09:00:22;99523.55;;;9.75;55.96
55801;BME280;41730;51.960;20.158;2023-02-18T09:02:55;99521.39;;;9.87;56.13
55801;BME280;41730;51.960;20.158;2023-02-18T09:05:27;99516.52;;;10.06;55.65
55801;BME280;41730;51.960;20.158;2023-02-18T09:07:58;99516.92;;;10.06;55.02
55801;BME280;41730;51.960;20.158;2023-02-18T09:10:30;99528.19;;;10.15;54.00
55801;BME280;41730;51.960;20.158;2023-02-18T09:13:03;99527.77;;;10.13;53.54
55801;BME280;41730;51.960;20.158;2023-02-18T09:15:35;99523.84;;;9.95;53.75
55801;BME280;41730;51.960;20.158;2023-02-18T09:18:07;99525.46;;;9.75;54.27
55801;BME280;41730;51.960;20.158;2023-02-18T09:20:40;99530.60;;;9.63;54.39
55801;BME280;41730;51.960;20.158;2023-02-18T09:23:11;99533.05;;;9.47;54.88
55801;BME280;41730;51.960;20.158;2023-02-18T09:25:44;99527.83;;;9.51;54.51
55801;BME280;41730;51.960;20.158;2023-02-18T09:28:16;99533.80;;;9.60;54.73
55801;BME280;41730;51.960;20.158;2023-02-18T09:30:47;99534.70;;;9.52;54.90
55801;BME280;41730;51.960;20.158;2023-02-18T09:33:20;99537.80;;;9.43;55.16
55801;BME280;41730;51.960;20.158;2023-02-18T09:35:52;99538.58;;;9.24;55.41
55801;BME280;41730;51.960;20.158;2023-02-18T09:38:23;99546.09;;;9.14;55.58
55801;BME280;41730;51.960;20.158;2023-02-18T09:41:00;99555.58;;;9.15;55.40
55801;BME280;41730;51.960;20.158;2023-02-18T09:43:35;99553.77;;;8.98;55.60
55801;BME280;41730;51.960;20.158;2023-02-18T09:46:09;99561.55;;;8.91;55.41
55801;BME280;41730;51.960;20.158;2023-02-18T09:48:48;99557.86;;;8.83;55.79
55801;BME280;41730;51.960;20.158;2023-02-18T09:51:21;99562.70;;;8.67;56.28
55801;BME280;41730;51.960;20.158;2023-02-18T09:53:53;99566.36;;;8.66;56.34
55801;BME280;41730;51.960;20.158;2023-02-18T09:56:28;99564.96;;;8.74;56.14
55801;BME280;41730;51.960;20.158;2023-02-18T09:59:04;99567.91;;;8.76;56.20
55801;BME280;41730;51.960;20.158;2023-02-18T10:01:42;99563.14;;;8.72;56.33
55801;BME280;41730;51.960;20.158;2023-02-18T10:04:17;99560.20;;;8.76;56.03
55801;BME280;41730;51.960;20.158;2023-02-18T10:06:54;99569.86;;;8.86;55.34
55801;BME280;41730;51.960;20.158;2023-02-18T10:09:30;99561.69;;;8.95;55.70
55801;BME280;41730;51.960;20.158;2023-02-18T10:12:12;99561.44;;;8.93;55.22
55801;BME280;41730;51.960;20.158;2023-02-18T10:14:51;99564.52;;;8.89;55.13
55801;BME280;41730;51.960;20.158;2023-02-18T10:17:29;99571.76;;;8.86;55.95
55801;BME280;41730;51.960;20.158;2023-02-18T10:20:11;99574.51;;;8.79;56.05
55801;BME280;41730;51.960;20.158;2023-02-18T10:22:54;99582.36;;;8.74;56.27
55801;BME280;41730;51.960;20.158;2023-02-18T10:25:29;99576.62;;;8.74;56.37
55801;BME280;41730;51.960;20.158;2023-02-18T10:28:03;99579.71;;;8.81;56.01
55801;BME280;41730;51.960;20.158;2023-02-18T10:30:39;99580.11;;;8.79;56.15
55801;BME280;41730;51.960;20.158;2023-02-18T10:33:26;99584.17;;;8.67;56.34
55801;BME280;41730;51.960;20.158;2023-02-18T10:36:11;99583.40;;;8.62;56.36
55801;BME280;41730;51.960;20.158;2023-02-18T10:38:48;99582.84;;;8.65;56.30
55801;BME280;41730;51.960;20.158;2023-02-18T10:41:33;99566.04;;;8.82;56.04
55801;BME280;41730;51.960;20.158;2023-02-18T10:44:14;99562.67;;;8.74;56.19
55801;BME280;41730;51.960;20.158;2023-02-18T10:46:56;99557.02;;;8.68;56.09
55801;BME280;41730;51.960;20.158;2023-02-18T10:52:41;99554.31;;;8.78;56.51
55801;BME280;41730;51.960;20.158;2023-02-18T10:55:35;99554.26;;;8.72;55.97
55801;BME280;41730;51.960;20.158;2023-02-18T10:58:27;99546.02;;;8.60;56.49
55801;BME280;41730;51.960;20.158;2023-02-18T11:01:02;99564.66;;;8.61;56.54
55801;BME280;41730;51.960;20.158;2023-02-18T11:03:43;99558.42;;;8.52;56.39
55801;BME280;41730;51.960;20.158;2023-02-18T11:06:23;99559.45;;;8.58;56.28
55801;BME280;41730;51.960;20.158;2023-02-18T11:09:01;99558.77;;;8.64;56.04
55801;BME280;41730;51.960;20.158;2023-02-18T11:11:31;99558.14;;;8.66;56.42
55801;BME280;41730;51.960;20.158;2023-02-18T11:17:42;99550.06;;;8.41;56.69
55801;BME280;41730;51.960;20.158;2023-02-18T11:20:29;99549.58;;;8.43;56.53
55801;BME280;41730;51.960;20.158;2023-02-18T11:23:18;99558.94;;;8.56;56.56
55801;BME280;41730;51.960;20.158;2023-02-18T11:26:00;99551.55;;;8.50;56.14
55801;BME280;41730;51.960;20.158;2023-02-18T11:28:48;99544.47;;;8.54;56.25
55801;BME280;41730;51.960;20.158;2023-02-18T11:31:37;99547.84;;;8.53;56.79
55801;BME280;41730;51.960;20.158;2023-02-18T11:34:36;99542.12;;;8.61;56.88
55801;BME280;41730;51.960;20.158;2023-02-18T11:37:45;99548.23;;;8.61;56.54
55801;BME280;41730;51.960;20.158;2023-02-18T11:40:24;99550.20;;;8.66;56.01
55801;BME280;41730;51.960;20.158;2023-02-18T11:43:06;99555.17;;;8.59;56.73
55801;BME280;41730;51.960;20.158;2023-02-18T11:45:42;99554.23;;;8.54;56.44
55801;BME280;41730;51.960;20.158;2023-02-18T11:48:21;99552.77;;;8.50;57.05
55801;BME280;41730;51.960;20.158;2023-02-18T11:50:54;99546.86;;;8.44;57.06
55801;BME280;41730;51.960;20.158;2023-02-18T11:53:33;99542.70;;;8.39;57.30
55801;BME280;41730;51.960;20.158;2023-02-18T11:56:15;99537.10;;;8.40;57.50
55801;BME280;41730;51.960;20.158;2023-02-18T11:58:49;99539.23;;;8.46;57.27
55801;BME280;41730;51.960;20.158;2023-02-18T12:01:30;99528.48;;;8.47;57.25
55801;BME280;41730;51.960;20.158;2023-02-18T12:04:15;99524.66;;;8.42;57.23
55801;BME280;41730;51.960;20.158;2023-02-18T12:06:53;99518.92;;;8.58;57.40
55801;BME280;41730;51.960;20.158;2023-02-18T12:09:36;99511.88;;;8.75;56.65
55801;BME280;41730;51.960;20.158;2023-02-18T12:12:15;99513.27;;;8.77;56.49
55801;BME280;41730;51.960;20.158;2023-02-18T12:14:48;99509.77;;;8.83;56.44
55801;BME280;41730;51.960;20.158;2023-02-18T12:17:44;99503.92;;;8.90;56.00
55801;BME280;41730;51.960;20.158;2023-02-18T12:20:41;99499.20;;;8.99;56.11
55801;BME280;41730;51.960;20.158;2023-02-18T12:23:22;99499.26;;;9.00;56.02
55801;BME280;41730;51.960;20.158;2023-02-18T12:26:02;99491.15;;;9.02;55.98
55801;BME280;41730;51.960;20.158;2023-02-18T12:28:50;99484.77;;;8.98;55.98
55801;BME280;41730;51.960;20.158;2023-02-18T12:31:39;99475.12;;;8.94;56.20
55801;BME280;41730;51.960;20.158;2023-02-18T12:34:28;99471.09;;;9.10;56.00
55801;BME280;41730;51.960;20.158;2023-02-18T12:37:08;99466.38;;;9.08;55.64
55801;BME280;41730;51.960;20.158;2023-02-18T12:40:01;99457.67;;;9.09;55.85
55801;BME280;41730;51.960;20.158;2023-02-18T12:42:45;99458.50;;;9.06;55.53
55801;BME280;41730;51.960;20.158;2023-02-18T12:45:43;99451.48;;;8.94;55.69
55801;BME280;41730;51.960;20.158;2023-02-18T12:51:26;99448.00;;;9.00;55.61
55801;BME280;41730;51.960;20.158;2023-02-18T12:54:33;99454.56;;;8.95;55.73
55801;BME280;41730;51.960;20.158;2023-02-18T12:57:15;99456.59;;;8.78;55.78
55801;BME280;41730;51.960;20.158;2023-02-18T13:00:14;99462.38;;;8.71;56.34
55801;BME280;41730;51.960;20.158;2023-02-18T13:05:59;99446.96;;;8.72;56.47
55801;BME280;41730;51.960;20.158;2023-02-18T13:08:40;99449.34;;;8.81;56.04
55801;BME280;41730;51.960;20.158;2023-02-18T13:11:28;99446.73;;;8.93;56.05
55801;BME280;41730;51.960;20.158;2023-02-18T13:14:11;99443.13;;;8.94;56.09
55801;BME280;41730;51.960;20.158;2023-02-18T13:16:48;99447.48;;;8.92;56.12
55801;BME280;41730;51.960;20.158;2023-02-18T13:19:28;99446.13;;;8.90;56.50
55801;BME280;41730;51.960;20.158;2023-02-18T13:22:05;99435.65;;;8.84;56.76
55801;BME280;41730;51.960;20.158;2023-02-18T13:24:44;99434.55;;;8.98;56.67
55801;BME280;41730;51.960;20.158;2023-02-18T13:27:21;99437.95;;;9.03;56.72
55801;BME280;41730;51.960;20.158;2023-02-18T13:30:13;99439.71;;;9.01;56.55
55801;BME280;41730;51.960;20.158;2023-02-18T13:32:52;99439.85;;;8.99;57.01
55801;BME280;41730;51.960;20.158;2023-02-18T13:35:33;99440.80;;;9.16;56.94
55801;BME280;41730;51.960;20.158;2023-02-18T13:41:05;99435.02;;;9.20;56.66
55801;BME280;41730;51.960;20.158;2023-02-18T13:43:38;99435.48;;;9.29;56.39
55801;BME280;41730;51.960;20.158;2023-02-18T13:46:12;99435.39;;;9.16;56.62
55801;BME280;41730;51.960;20.158;2023-02-18T13:48:48;99438.35;;;9.12;56.90
55801;BME280;41730;51.960;20.158;2023-02-18T13:51:33;99430.31;;;9.10;56.84
55801;BME280;41730;51.960;20.158;2023-02-18T13:54:19;99436.31;;;9.14;56.74
55801;BME280;41730;51.960;20.158;2023-02-18T13:57:01;99415.23;;;9.07;56.52
55801;BME280;41730;51.960;20.158;2023-02-18T13:59:35;99417.84;;;9.09;56.80
55801;BME280;41730;51.960;20.158;2023-02-18T14:02:32;99416.11;;;9.13;57.29
55801;BME280;41730;51.960;20.158;2023-02-18T14:05:21;99410.94;;;9.37;56.49
55801;BME280;41730;51.960;20.158;2023-02-18T14:08:10;99407.79;;;9.45;55.92
55801;BME280;41730;51.960;20.158;2023-02-18T14:10:43;99408.77;;;9.59;55.65
55801;BME280;41730;51.960;20.158;2023-02-18T14:13:45;99398.95;;;9.50;55.91
55801;BME280;41730;51.960;20.158;2023-02-18T14:16:20;99385.45;;;9.31;56.33